createdAt,value
2023-05-11T00:01:19.739Z,0.98
2023-05-11T00:03:47.931Z,0.70
2023-05-11T00:06:15.784Z,1.05
2023-05-11T00:08:43.558Z,0.43
2023-05-11T00:11:11.376Z,0.40
2023-05-11T00:13:39.222Z,1.35
2023-05-11T00:16:06.987Z,1.17
2023-05-11T00:18:34.797Z,1.50
2023-05-11T00:21:02.818Z,0.43
2023-05-11T00:23:30.767Z,1.45
2023-05-11T00:25:58.497Z,2.13
2023-05-11T00:28:26.388Z,0.85
2023-05-11T00:30:58.667Z,1.25
2023-05-11T00:33:26.835Z,1.30
2023-05-11T00:35:54.775Z,1.15
2023-05-11T00:38:22.678Z,0.57
2023-05-11T00:40:51.140Z,0.60
2023-05-11T00:43:19.031Z,2.97
2023-05-11T00:45:48.197Z,0.47
2023-05-11T00:48:16.428Z,0.50
2023-05-11T00:50:44.733Z,0.60
2023-05-11T00:53:13.279Z,1.58
2023-05-11T00:55:41.387Z,0.60
2023-05-11T00:58:09.295Z,0.50
2023-05-11T01:00:37.126Z,0.70
2023-05-11T01:03:05.449Z,0.77
2023-05-11T01:06:08.269Z,0.80
2023-05-11T01:09:07.883Z,0.60
2023-05-11T01:12:00.514Z,1.00
2023-05-11T01:14:49.276Z,0.60
2023-05-11T01:17:28.366Z,0.60
2023-05-11T01:20:07.416Z,0.90
2023-05-11T01:23:08.627Z,0.65
2023-05-11T01:25:49.636Z,0.95
2023-05-11T01:28:23.175Z,0.50
2023-05-11T01:30:57.810Z,1.08
2023-05-11T01:33:35.254Z,1.42
2023-05-11T01:36:11.096Z,0.57
2023-05-11T01:38:44.304Z,0.60
2023-05-11T01:41:18.166Z,0.60
2023-05-11T01:43:55.953Z,2.38
2023-05-11T01:46:27.304Z,1.23
2023-05-11T01:51:32.708Z,0.63
2023-05-11T01:54:02.242Z,0.70
2023-05-11T01:56:31.189Z,0.55
2023-05-11T01:59:00.205Z,0.70
2023-05-11T02:01:35.805Z,0.63
2023-05-11T02:04:05.909Z,1.30
2023-05-11T02:06:35.558Z,1.50
2023-05-11T02:09:04.693Z,3.28
2023-05-11T02:11:35.883Z,0.65
2023-05-11T02:14:05.654Z,1.30
2023-05-11T02:16:35.156Z,1.35
2023-05-11T02:19:07.854Z,0.50
2023-05-11T02:21:38.061Z,2.92
2023-05-11T02:24:08.353Z,0.60
2023-05-11T02:26:37.040Z,1.80
2023-05-11T02:29:04.995Z,1.90
2023-05-11T02:31:42.623Z,1.23
2023-05-11T02:34:24.984Z,0.60
2023-05-11T02:37:02.470Z,0.73
2023-05-11T02:39:36.647Z,1.90
2023-05-11T02:42:18.277Z,0.53
2023-05-11T02:45:02.626Z,1.40
2023-05-11T02:47:39.809Z,0.82
2023-05-11T02:50:09.985Z,2.70
2023-05-11T02:52:49.512Z,0.70
2023-05-11T02:55:20.934Z,0.88
2023-05-11T02:57:49.277Z,1.08
2023-05-11T03:00:18.015Z,1.38
2023-05-11T03:02:47.704Z,0.73
2023-05-11T03:05:18.213Z,0.70
2023-05-11T03:07:47.517Z,0.77
2023-05-11T03:10:15.383Z,1.33
2023-05-11T03:12:46.311Z,0.88
2023-05-11T03:15:16.259Z,0.82
2023-05-11T03:17:47.507Z,1.23
2023-05-11T03:20:19.379Z,1.75
2023-05-11T03:22:48.406Z,0.63
2023-05-11T03:25:17.262Z,0.85
2023-05-11T03:27:47.195Z,0.68
2023-05-11T03:30:19.827Z,0.80
2023-05-11T03:32:52.402Z,1.35
2023-05-11T03:35:25.820Z,0.70
2023-05-11T03:37:56.926Z,0.73
2023-05-11T03:40:30.071Z,0.80
2023-05-11T03:43:00.129Z,1.38
2023-05-11T03:45:31.428Z,1.23
2023-05-11T03:48:00.432Z,1.75
2023-05-11T03:50:28.801Z,0.90
2023-05-11T03:52:57.325Z,1.33
2023-05-11T03:55:26.911Z,0.90
2023-05-11T03:57:54.703Z,0.60
2023-05-11T04:00:22.636Z,0.70
2023-05-11T04:02:53.013Z,0.90
2023-05-11T04:05:20.847Z,1.10
2023-05-11T04:07:50.502Z,0.95
2023-05-11T04:10:19.813Z,0.70
2023-05-11T04:12:47.843Z,0.70
2023-05-11T04:15:16.382Z,0.75
2023-05-11T04:17:44.165Z,1.13
2023-05-11T04:20:12.735Z,1.30
2023-05-11T04:22:40.756Z,1.55
2023-05-11T04:25:09.157Z,1.25
2023-05-11T04:27:37.560Z,3.00
2023-05-11T04:30:07.170Z,1.23
2023-05-11T04:32:37.193Z,0.90
2023-05-11T04:35:05.421Z,1.10
2023-05-11T04:40:07.393Z,1.17
2023-05-11T04:42:46.443Z,0.73
2023-05-11T04:45:17.751Z,2.78
2023-05-11T04:47:45.826Z,0.80
2023-05-11T04:50:14.120Z,0.80
2023-05-11T04:52:41.933Z,3.15
2023-05-11T04:55:10.004Z,1.00
2023-05-11T04:57:39.000Z,0.85
2023-05-11T05:00:11.097Z,1.98
2023-05-11T05:02:41.138Z,0.85
2023-05-11T05:05:09.570Z,1.05
2023-05-11T05:07:37.644Z,1.02
2023-05-11T05:10:08.913Z,0.90
2023-05-11T05:12:37.184Z,1.70
2023-05-11T05:15:06.331Z,3.17
2023-05-11T05:17:34.378Z,1.67
2023-05-11T05:20:02.325Z,1.30
2023-05-11T05:22:30.469Z,1.73
2023-05-11T05:24:58.494Z,1.17
2023-05-11T05:27:26.326Z,1.38
2023-05-11T05:29:57.503Z,1.10
2023-05-11T05:32:26.746Z,1.00
2023-05-11T05:34:55.102Z,1.35
2023-05-11T05:37:23.444Z,1.38
2023-05-11T05:39:51.124Z,1.20
2023-05-11T05:42:19.095Z,1.88
2023-05-11T05:44:46.910Z,3.15
2023-05-11T05:47:16.175Z,1.30
2023-05-11T05:49:45.929Z,2.05
2023-05-11T05:52:13.778Z,1.50
2023-05-11T05:54:42.361Z,1.48
2023-05-11T05:57:10.079Z,3.03
2023-05-11T05:59:37.842Z,1.30
2023-05-11T06:02:08.686Z,1.05
2023-05-11T06:04:37.850Z,1.10
2023-05-11T06:07:05.621Z,1.25
2023-05-11T06:09:36.202Z,2.05
2023-05-11T06:12:06.072Z,1.38
2023-05-11T06:14:36.669Z,2.05
2023-05-11T06:17:04.519Z,1.38
2023-05-11T06:19:32.261Z,1.40
2023-05-11T06:22:00.148Z,1.20
2023-05-11T06:24:29.789Z,1.65
2023-05-11T06:26:58.681Z,3.78
2023-05-11T06:29:26.992Z,1.92
2023-05-11T06:31:56.076Z,1.48
2023-05-11T06:34:24.599Z,2.60
2023-05-11T06:36:52.362Z,1.30
2023-05-11T06:39:20.083Z,1.50
2023-05-11T06:41:47.875Z,1.63
2023-05-11T06:44:15.680Z,2.42
2023-05-11T06:46:45.779Z,1.40
2023-05-11T06:49:13.587Z,1.50
2023-05-11T06:51:42.005Z,3.13
2023-05-11T06:54:09.880Z,1.40
2023-05-11T06:56:37.853Z,3.58
2023-05-11T06:59:05.610Z,2.13
2023-05-11T07:01:33.348Z,2.33
2023-05-11T07:04:01.896Z,1.95
2023-05-11T07:06:29.799Z,1.92
2023-05-11T07:08:57.540Z,2.25
2023-05-11T07:11:27.803Z,2.42
2023-05-11T07:13:57.425Z,1.70
2023-05-11T07:16:25.220Z,2.17
2023-05-11T07:18:52.988Z,2.13
2023-05-11T07:21:22.275Z,4.03
2023-05-11T07:23:50.052Z,3.05
2023-05-11T07:26:19.905Z,2.22
2023-05-11T07:28:47.610Z,2.80
2023-05-11T07:31:15.451Z,1.80
2023-05-11T07:33:43.306Z,1.70
2023-05-11T07:36:12.590Z,2.03
2023-05-11T07:38:40.483Z,2.20
2023-05-11T07:41:10.096Z,2.08
2023-05-11T07:43:40.520Z,2.42
2023-05-11T07:46:08.257Z,2.53
2023-05-11T07:48:36.578Z,2.50
2023-05-11T07:51:04.595Z,2.88
2023-05-11T07:53:33.085Z,2.58
2023-05-11T07:56:00.959Z,2.00
2023-05-11T07:58:28.671Z,2.17
2023-05-11T08:00:57.400Z,2.17
2023-05-11T08:03:25.513Z,2.13
2023-05-11T08:05:53.509Z,1.83
2023-05-11T08:08:21.269Z,1.80
2023-05-11T08:10:49.131Z,2.65
2023-05-11T08:13:17.291Z,2.13
2023-05-11T08:15:45.877Z,2.30
2023-05-11T08:18:13.902Z,2.20
2023-05-11T08:20:43.742Z,2.00
2023-05-11T08:23:17.154Z,2.28
2023-05-11T08:25:55.524Z,2.03
2023-05-11T08:28:23.390Z,2.10
2023-05-11T08:30:56.554Z,2.17
2023-05-11T08:35:55.435Z,2.50
2023-05-11T08:38:23.148Z,2.08
2023-05-11T08:40:54.537Z,2.17
2023-05-11T08:45:53.379Z,1.88
2023-05-11T08:48:22.768Z,1.98
2023-05-11T08:50:53.624Z,2.00
2023-05-11T08:53:22.360Z,2.00
2023-05-11T08:55:51.563Z,2.40
2023-05-11T08:58:22.345Z,2.15
2023-05-11T09:00:51.116Z,3.05
2023-05-11T09:03:23.600Z,2.03
2023-05-11T09:05:52.204Z,1.77
2023-05-11T09:08:24.173Z,3.90
2023-05-11T09:10:52.335Z,2.88
2023-05-11T09:13:20.261Z,2.58
2023-05-11T09:15:47.987Z,3.08
2023-05-11T09:18:16.000Z,2.25
2023-05-11T09:20:44.525Z,1.85
2023-05-11T09:23:17.484Z,1.80
2023-05-11T09:25:45.519Z,1.75
2023-05-11T09:28:15.786Z,1.40
2023-05-11T09:30:44.361Z,2.43
2023-05-11T09:33:12.195Z,1.92
2023-05-11T09:35:40.272Z,1.70
2023-05-11T09:38:11.285Z,2.63
2023-05-11T09:40:53.384Z,1.58
2023-05-11T09:43:30.751Z,2.15
2023-05-11T09:46:08.722Z,1.83
2023-05-11T09:48:36.583Z,2.10
2023-05-11T09:51:06.771Z,1.88
2023-05-11T09:53:38.845Z,1.45
2023-05-11T09:56:07.089Z,2.40
2023-05-11T09:58:57.366Z,2.67
2023-05-11T10:01:34.272Z,4.18
2023-05-11T10:04:21.223Z,2.30
2023-05-11T10:06:54.086Z,2.00
2023-05-11T10:09:29.289Z,1.73
2023-05-11T10:11:57.289Z,1.90
2023-05-11T10:14:26.832Z,1.83
2023-05-11T10:16:57.612Z,2.75
2023-05-11T10:19:25.692Z,1.83
2023-05-11T10:21:55.351Z,2.13
2023-05-11T10:24:23.155Z,3.35
2023-05-11T10:26:51.921Z,1.98
2023-05-11T10:29:20.138Z,1.75
2023-05-11T10:31:51.092Z,1.80
2023-05-11T10:34:23.237Z,1.80
2023-05-11T10:36:53.189Z,1.90
2023-05-11T10:39:21.575Z,3.55
2023-05-11T10:42:39.318Z,1.90
2023-05-11T10:46:08.743Z,1.80
2023-05-11T10:49:22.205Z,2.13
2023-05-11T10:52:21.594Z,1.80
2023-05-11T10:54:58.134Z,1.70
2023-05-11T10:57:51.503Z,1.55
2023-05-11T11:00:43.805Z,1.73
2023-05-11T11:03:13.570Z,1.73
2023-05-11T11:05:43.800Z,1.77
2023-05-11T11:08:13.772Z,1.67
2023-05-11T11:10:46.775Z,4.70
2023-05-11T11:13:16.862Z,3.97
2023-05-11T11:15:55.909Z,1.77
2023-05-11T11:18:29.889Z,2.08
2023-05-11T11:20:59.098Z,1.80
2023-05-11T11:23:50.250Z,1.80
2023-05-11T11:26:50.438Z,1.67
2023-05-11T11:29:18.359Z,1.85
2023-05-11T11:31:46.222Z,1.85
2023-05-11T11:34:29.448Z,1.85
2023-05-11T11:37:08.342Z,5.68
2023-05-11T11:39:42.061Z,2.00
2023-05-11T11:42:15.688Z,15.77
2023-05-11T11:44:44.811Z,7.40
2023-05-11T11:47:20.131Z,3.08
2023-05-11T11:49:54.635Z,2.30
2023-05-11T11:52:31.088Z,1.70
2023-05-11T11:55:01.099Z,2.30
2023-05-11T11:57:35.097Z,1.90
2023-05-11T12:00:10.585Z,1.75
2023-05-11T12:02:45.863Z,1.60
2023-05-11T12:05:19.861Z,2.08
2023-05-11T12:07:51.568Z,1.95
2023-05-11T12:10:22.477Z,1.52
2023-05-11T12:12:54.938Z,2.40
2023-05-11T12:15:30.080Z,2.13
2023-05-11T12:17:58.243Z,4.18
2023-05-11T12:20:26.212Z,3.20
2023-05-11T12:22:54.157Z,1.85
2023-05-11T12:25:22.338Z,3.55
2023-05-11T12:27:58.128Z,1.95
2023-05-11T12:30:29.269Z,1.90
2023-05-11T12:32:59.252Z,2.58
2023-05-11T12:35:30.115Z,3.40
2023-05-11T12:38:04.989Z,1.90
2023-05-11T12:40:32.967Z,3.88
2023-05-11T12:43:01.035Z,2.67
2023-05-11T12:45:29.590Z,3.38
2023-05-11T12:47:58.391Z,2.10
2023-05-11T12:50:26.345Z,1.85
2023-05-11T12:52:54.357Z,1.70
2023-05-11T12:55:30.640Z,1.98
2023-05-11T12:58:16.128Z,2.10
2023-05-11T13:00:59.703Z,2.33
2023-05-11T13:03:34.103Z,2.40
2023-05-11T13:06:12.420Z,1.60
2023-05-11T13:08:49.927Z,1.67
2023-05-11T13:11:26.718Z,1.50
2023-05-11T13:13:57.219Z,2.63
2023-05-11T13:16:32.659Z,1.80
2023-05-11T13:19:02.765Z,1.77
2023-05-11T13:21:33.173Z,1.83
2023-05-11T13:24:03.997Z,1.70
2023-05-11T13:26:32.790Z,1.50
2023-05-11T13:29:09.533Z,1.63
2023-05-11T13:31:50.294Z,1.33
2023-05-11T13:34:22.120Z,1.50
2023-05-11T13:36:51.840Z,1.52
2023-05-11T13:39:20.547Z,1.60
2023-05-11T13:41:48.397Z,1.52
2023-05-11T13:44:16.108Z,1.27
2023-05-11T13:46:44.009Z,1.30
2023-05-11T13:49:12.094Z,2.30
2023-05-11T13:51:39.853Z,1.00
2023-05-11T13:54:07.968Z,1.23
2023-05-11T13:56:35.760Z,1.35
2023-05-11T13:59:03.526Z,25.98
2023-05-11T14:01:31.345Z,9.80
2023-05-11T14:03:59.439Z,3.28
2023-05-11T14:06:27.328Z,4.10
2023-05-11T14:11:26.167Z,6.28
2023-05-11T14:13:53.941Z,9.10
2023-05-11T14:16:22.118Z,12.88
2023-05-11T14:18:51.843Z,3.35
2023-05-11T14:21:19.664Z,2.05
2023-05-11T14:24:02.078Z,1.80
2023-05-11T14:26:35.018Z,1.55
2023-05-11T14:29:02.929Z,1.33
2023-05-11T14:31:31.382Z,2.10
2023-05-11T14:33:59.204Z,2.30
2023-05-11T14:36:27.803Z,1.58
2023-05-11T14:38:55.902Z,1.38
2023-05-11T14:41:23.882Z,1.40
2023-05-11T14:43:52.110Z,2.28
2023-05-11T14:46:20.278Z,2.53
2023-05-11T14:48:48.380Z,1.83
2023-05-11T14:51:16.182Z,4.25
2023-05-11T14:53:43.951Z,3.00
2023-05-11T14:56:11.917Z,1.63
2023-05-11T14:58:39.777Z,1.40
2023-05-11T15:01:08.226Z,1.30
2023-05-11T15:03:38.029Z,1.20
2023-05-11T15:06:06.291Z,1.58
2023-05-11T15:08:34.008Z,1.52
2023-05-11T15:11:01.681Z,1.85
2023-05-11T15:13:29.483Z,1.48
2023-05-11T15:15:57.763Z,1.30
2023-05-11T15:18:25.607Z,1.38
2023-05-11T15:20:53.511Z,1.23
2023-05-11T15:23:21.337Z,1.20
2023-05-11T15:25:49.281Z,1.20
2023-05-11T15:28:16.994Z,1.30
2023-05-11T15:30:44.812Z,2.13
2023-05-11T15:33:12.678Z,1.42
2023-05-11T15:35:41.607Z,1.50
2023-05-11T15:38:09.472Z,2.22
2023-05-11T15:40:37.266Z,1.40
2023-05-11T15:43:04.977Z,2.58
2023-05-11T15:45:32.816Z,1.23
2023-05-11T15:48:01.484Z,1.50
2023-05-11T15:50:29.581Z,1.70
2023-05-11T15:52:57.336Z,1.73
2023-05-11T15:55:26.210Z,1.85
2023-05-11T15:57:53.962Z,1.50
2023-05-11T16:00:21.850Z,2.35
2023-05-11T16:02:50.083Z,3.05
2023-05-11T16:05:18.528Z,2.13
2023-05-11T16:07:48.156Z,2.60
2023-05-11T16:10:15.977Z,1.30
2023-05-11T16:12:43.763Z,1.50
2023-05-11T16:15:11.966Z,1.33
2023-05-11T16:17:40.036Z,1.90
2023-05-11T16:20:08.738Z,2.53
2023-05-11T16:22:37.212Z,3.22
2023-05-11T16:25:06.648Z,1.88
2023-05-11T16:27:34.330Z,2.20
2023-05-11T16:30:18.027Z,3.60
2023-05-11T16:32:51.597Z,1.60
2023-05-11T16:35:19.463Z,1.60
2023-05-11T16:37:47.897Z,2.40
2023-05-11T16:40:21.421Z,2.90
2023-05-11T16:42:51.060Z,2.08
2023-05-11T16:45:19.132Z,2.33
2023-05-11T16:47:47.364Z,2.67
2023-05-11T16:50:18.690Z,2.33
2023-05-11T16:52:46.744Z,1.92
2023-05-11T16:55:16.054Z,2.83
2023-05-11T16:57:44.553Z,1.50
2023-05-11T17:00:13.608Z,1.67
2023-05-11T17:02:41.749Z,1.25
2023-05-11T17:05:11.762Z,1.05
2023-05-11T17:07:39.522Z,1.67
2023-05-11T17:10:11.837Z,1.55
2023-05-11T17:12:40.212Z,1.23
2023-05-11T17:15:11.832Z,2.22
2023-05-11T17:17:39.785Z,3.70
2023-05-11T17:20:08.576Z,0.80
2023-05-11T17:22:37.378Z,0.93
2023-05-11T17:25:07.749Z,1.58
2023-05-11T17:27:38.207Z,1.88
2023-05-11T17:30:07.515Z,2.13
2023-05-11T17:32:35.600Z,1.00
2023-05-11T17:35:04.300Z,3.20
2023-05-11T17:37:32.623Z,2.90
2023-05-11T17:40:01.509Z,2.28
2023-05-11T17:42:29.593Z,2.03
2023-05-11T17:44:57.573Z,4.03
2023-05-11T17:47:26.023Z,3.05
2023-05-11T17:49:55.822Z,3.20
2023-05-11T17:52:25.154Z,1.85
2023-05-11T17:54:53.238Z,1.70
2023-05-11T17:57:23.337Z,1.90
2023-05-11T17:59:51.382Z,1.48
2023-05-11T18:02:19.307Z,2.63
2023-05-11T18:04:47.223Z,1.58
2023-05-11T18:07:15.036Z,3.28
2023-05-11T18:09:43.117Z,2.92
2023-05-11T18:12:11.761Z,2.90
2023-05-11T18:14:40.063Z,3.03
2023-05-11T18:17:07.953Z,2.97
2023-05-11T18:19:35.931Z,2.60
2023-05-11T18:22:04.321Z,1.70
2023-05-11T18:24:32.051Z,2.42
2023-05-11T18:27:01.184Z,1.83
2023-05-11T18:29:28.897Z,1.73
2023-05-11T18:31:56.771Z,1.90
2023-05-11T18:34:24.543Z,1.65
2023-05-11T18:36:53.620Z,3.88
2023-05-11T18:39:21.931Z,4.72
2023-05-11T18:41:49.682Z,6.70
2023-05-11T18:44:18.963Z,2.70
2023-05-11T18:46:46.784Z,3.60
2023-05-11T18:49:14.563Z,2.55
2023-05-11T18:51:46.699Z,2.38
2023-05-11T18:54:14.704Z,2.42
2023-05-11T18:56:42.706Z,2.42
2023-05-11T18:59:10.910Z,3.50
2023-05-11T19:01:47.525Z,3.33
2023-05-11T19:04:19.805Z,2.60
2023-05-11T19:06:47.979Z,2.55
2023-05-11T19:09:16.021Z,3.58
2023-05-11T19:11:44.275Z,3.20
2023-05-11T19:14:14.616Z,2.88
2023-05-11T19:16:42.607Z,2.20
2023-05-11T19:19:10.975Z,3.60
2023-05-11T19:21:43.354Z,3.78
2023-05-11T19:24:11.899Z,2.53
2023-05-11T19:26:39.814Z,2.00
2023-05-11T19:29:13.417Z,2.13
2023-05-11T19:31:41.246Z,2.45
2023-05-11T19:34:09.334Z,2.28
2023-05-11T19:36:37.083Z,4.28
2023-05-11T19:39:04.848Z,2.42
2023-05-11T19:41:33.240Z,2.47
2023-05-11T19:44:02.710Z,2.63
2023-05-11T19:46:30.615Z,2.58
2023-05-11T19:49:00.319Z,2.85
2023-05-11T19:51:28.058Z,2.13
2023-05-11T19:53:57.146Z,3.20
2023-05-11T19:56:24.898Z,2.28
2023-05-11T19:58:52.584Z,2.63
2023-05-11T20:01:20.333Z,4.57
2023-05-11T20:03:48.333Z,4.18
2023-05-11T20:06:16.747Z,4.25
2023-05-11T20:08:46.400Z,2.60
2023-05-11T20:11:15.703Z,3.90
2023-05-11T20:13:44.544Z,2.55
2023-05-11T20:16:12.708Z,2.70
2023-05-11T20:18:40.546Z,2.13
2023-05-11T20:21:08.304Z,1.98
2023-05-11T20:23:37.572Z,3.03
2023-05-11T20:26:05.510Z,5.75
2023-05-11T20:28:33.244Z,4.65
2023-05-11T20:31:01.063Z,2.72
2023-05-11T20:36:00.138Z,2.42
2023-05-11T20:38:28.007Z,4.63
2023-05-11T20:40:59.052Z,3.15
2023-05-11T20:43:27.195Z,3.67
2023-05-11T20:45:55.379Z,2.90
2023-05-11T20:48:32.385Z,4.07
2023-05-11T20:51:03.957Z,2.80
2023-05-11T20:53:31.792Z,3.05
2023-05-11T20:56:01.873Z,3.65
2023-05-11T20:58:31.692Z,3.40
2023-05-11T21:00:59.653Z,4.00
2023-05-11T21:03:27.870Z,3.47
2023-05-11T21:05:56.545Z,3.00
2023-05-11T21:08:24.324Z,3.25
2023-05-11T21:10:53.077Z,3.22
2023-05-11T21:13:20.897Z,3.47
2023-05-11T21:15:48.683Z,3.92
2023-05-11T21:18:16.490Z,5.22
2023-05-11T21:20:44.219Z,4.32
2023-05-11T21:23:12.014Z,3.75
2023-05-11T21:25:40.472Z,4.32
2023-05-11T21:28:08.510Z,4.88
2023-05-11T21:30:36.542Z,4.13
2023-05-11T21:33:04.353Z,4.53
2023-05-11T21:35:32.078Z,4.80
2023-05-11T21:37:59.797Z,5.82
2023-05-11T21:40:27.514Z,4.63
2023-05-11T21:42:55.316Z,5.32
2023-05-11T21:45:23.528Z,4.05
2023-05-11T21:47:52.225Z,5.00
2023-05-11T21:50:20.287Z,4.40
2023-05-11T21:52:48.268Z,5.78
2023-05-11T21:55:16.059Z,4.50
2023-05-11T21:57:43.764Z,7.70
2023-05-11T22:00:18.321Z,6.53
2023-05-11T22:02:46.723Z,4.25
2023-05-11T22:05:14.955Z,8.38
2023-05-11T22:07:43.896Z,6.15
2023-05-11T22:10:12.232Z,5.80
2023-05-11T22:12:40.038Z,5.90
2023-05-11T22:15:08.873Z,5.50
2023-05-11T22:17:37.212Z,4.70
2023-05-11T22:20:06.552Z,5.43
2023-05-11T22:22:35.241Z,9.10
2023-05-11T22:25:03.872Z,5.10
2023-05-11T22:27:32.097Z,5.25
2023-05-11T22:29:59.908Z,7.93
2023-05-11T22:32:27.966Z,6.30
2023-05-11T22:34:59.979Z,5.88
2023-05-11T22:37:28.683Z,4.90
2023-05-11T22:39:56.567Z,6.32
2023-05-11T22:42:24.316Z,5.30
2023-05-11T22:44:52.340Z,12.60
2023-05-11T22:47:20.168Z,7.38
2023-05-11T22:49:47.950Z,5.88
2023-05-11T22:52:16.556Z,4.85
2023-05-11T22:54:44.367Z,6.65
2023-05-11T22:57:14.819Z,4.88
2023-05-11T22:59:42.564Z,12.77
2023-05-11T23:02:10.328Z,9.88
2023-05-11T23:04:38.479Z,9.98
2023-05-11T23:07:07.844Z,6.22
2023-05-11T23:09:35.688Z,7.05
2023-05-11T23:12:03.698Z,3.90
2023-05-11T23:14:31.548Z,6.65
2023-05-11T23:16:59.342Z,5.07
2023-05-11T23:19:27.225Z,13.02
2023-05-11T23:21:55.030Z,5.43
2023-05-11T23:24:22.735Z,5.43
2023-05-11T23:26:50.697Z,6.50
2023-05-11T23:29:18.486Z,4.78
2023-05-11T23:31:46.573Z,5.90
2023-05-11T23:34:14.774Z,6.70
2023-05-11T23:36:42.495Z,7.50
2023-05-11T23:39:10.299Z,6.78
2023-05-11T23:41:38.523Z,6.40
2023-05-11T23:44:06.538Z,6.25
2023-05-11T23:46:34.459Z,10.05
2023-05-11T23:49:02.239Z,7.65
2023-05-11T23:51:29.960Z,5.95
2023-05-11T23:53:57.745Z,6.57
2023-05-11T23:56:25.567Z,7.47
2023-05-11T23:58:53.385Z,7.13
